Time;durP1;ratioP1;P1;durP2;ratioP2;P2;SDS_P1;SDS_P2;PMS_P1;PMS_P2;Temp;Humidity;BMP_temperature;BMP_pressure;BME280_temperature;BME280_humidity;BME280_pressure;Samples;Min_cycle;Max_cycle;Signal;HPM_P1;HPM_P2
2023/05/13 00:00:22;;;;;;;5.35;3.90;;;;;;;15.53;62.00;101953.31;5045266;28;20056;-58
2023/05/13 00:02:51;;;;;;;7.72;4.20;;;;;;;15.52;62.13;101949.75;5068273;28;20107;-59
2023/05/13 00:05:19;;;;;;;5.60;4.10;;;;;;;15.53;62.10;101951.41;5057114;28;20044;-59
2023/05/13 00:07:47;;;;;;;9.95;4.03;;;;;;;15.52;62.11;101951.66;5048333;28;20083;-59
2023/05/13 00:10:15;;;;;;;7.03;4.25;;;;;;;15.49;61.99;101944.78;5055063;28;20049;-53
2023/05/13 00:12:43;;;;;;;5.90;4.40;;;;;;;15.50;61.99;101951.03;5059818;28;20087;-59
2023/05/13 00:15:13;;;;;;;5.70;3.92;;;;;;;15.49;61.88;101944.78;5049001;28;20220;-59
2023/05/13 00:17:40;;;;;;;6.13;4.20;;;;;;;15.49;62.06;101939.38;5059191;28;20072;-61
2023/05/13 00:20:09;;;;;;;6.10;3.80;;;;;;;15.43;61.81;101928.63;5045114;28;20053;-59
2023/05/13 00:22:37;;;;;;;6.68;4.68;;;;;;;15.48;61.88;101935.00;5045779;28;20056;-59
2023/05/13 00:25:05;;;;;;;8.50;4.75;;;;;;;15.48;61.94;101940.44;5056949;28;20053;-60
2023/05/13 00:27:33;;;;;;;8.55;3.53;;;;;;;15.46;61.69;101947.13;5042166;28;20083;-59
2023/05/13 00:30:01;;;;;;;6.57;3.92;;;;;;;15.46;61.70;101941.72;5051799;28;20037;-57
2023/05/13 00:32:30;;;;;;;6.32;3.63;;;;;;;15.45;61.82;101940.06;5055502;28;20284;-59
2023/05/13 00:34:58;;;;;;;7.63;4.05;;;;;;;15.44;61.84;101943.81;5040779;28;20064;-59
2023/05/13 00:37:26;;;;;;;6.70;3.95;;;;;;;15.44;61.75;101943.81;5048314;28;20083;-60
2023/05/13 00:39:54;;;;;;;7.38;4.10;;;;;;;15.43;61.74;101940.28;5046333;28;20045;-57
2023/05/13 00:42:21;;;;;;;7.70;3.92;;;;;;;15.42;61.69;101937.81;5050939;28;20640;-60
2023/05/13 00:44:49;;;;;;;5.82;3.83;;;;;;;15.42;61.48;101945.94;5058519;28;20041;-59
2023/05/13 00:47:17;;;;;;;9.85;4.38;;;;;;;15.41;61.55;101942.41;5051943;28;20140;-60
2023/05/13 00:49:47;;;;;;;6.00;3.78;;;;;;;15.40;61.60;101939.91;5056291;28;20252;-59
2023/05/13 00:52:15;;;;;;;6.25;4.45;;;;;;;15.40;61.12;101940.75;5054460;28;20090;-60
2023/05/13 00:54:43;;;;;;;5.65;4.00;;;;;;;15.38;61.10;101945.56;5048074;28;20037;-59
2023/05/13 00:57:10;;;;;;;9.35;4.65;;;;;;;15.38;61.37;101942.03;5046569;28;20048;-61
2023/05/13 00:59:39;;;;;;;5.60;3.90;;;;;;;15.37;61.40;101946.63;5055382;28;20128;-60
2023/05/13 01:02:21;;;;;;;10.02;4.32;;;;;;;15.37;61.08;101952.03;5053477;28;20044;-60
2023/05/13 01:05:01;;;;;;;4.82;3.83;;;;;;;15.37;61.29;101951.19;5052578;28;20088;-60
2023/05/13 01:07:40;;;;;;;6.63;3.78;;;;;;;15.36;61.22;101949.56;5045637;28;20060;-59
2023/05/13 01:10:15;;;;;;;5.65;3.70;;;;;;;15.34;61.17;101940.81;5051048;28;20052;-57
2023/05/13 01:12:46;;;;;;;13.35;3.67;;;;;;;15.33;60.89;101941.88;5055556;28;20056;-59
2023/05/13 01:15:15;;;;;;;7.07;3.95;;;;;;;15.32;61.05;101946.47;5058716;28;20297;-58
2023/05/13 01:17:50;;;;;;;5.80;3.55;;;;;;;15.32;61.13;101949.19;5055789;28;20117;-59
2023/05/13 01:20:22;;;;;;;5.57;3.83;;;;;;;15.32;61.05;101945.63;5059335;28;20053;-59
2023/05/13 01:22:53;;;;;;;6.30;3.22;;;;;;;15.29;61.32;101942.34;5059993;28;20063;-59
2023/05/13 01:25:21;;;;;;;5.03;3.55;;;;;;;15.29;61.22;101941.50;5053752;28;20041;-60
2023/05/13 01:27:49;;;;;;;6.60;3.42;;;;;;;15.29;60.99;101941.50;5056089;28;20055;-59
2023/05/13 01:30:17;;;;;;;6.88;3.47;;;;;;;15.28;61.20;101939.84;5048225;28;20055;-57
2023/05/13 01:32:45;;;;;;;5.03;3.85;;;;;;;15.28;61.31;101947.97;5049841;28;20060;-59
2023/05/13 01:35:15;;;;;;;6.82;3.45;;;;;;;15.25;61.28;101943.84;5048197;28;20469;-60
2023/05/13 01:37:43;;;;;;;4.88;3.38;;;;;;;15.25;61.31;101945.72;5057377;28;20045;-59
2023/05/13 01:40:13;;;;;;;5.22;3.50;;;;;;;15.24;61.11;101944.06;5053192;28;20538;-59
2023/05/13 01:42:59;;;;;;;6.00;3.80;;;;;;;15.24;61.17;101946.78;5055594;28;20055;-60
2023/05/13 01:45:28;;;;;;;4.60;3.67;;;;;;;15.23;61.01;101945.13;5059286;28;20148;-59
2023/05/13 01:47:55;;;;;;;5.55;3.67;;;;;;;15.23;61.31;101947.81;5056117;28;20099;-60
2023/05/13 01:50:24;;;;;;;6.43;3.70;;;;;;;15.21;61.17;101942.63;5056089;28;20103;-53
2023/05/13 01:52:52;;;;;;;7.22;3.70;;;;;;;15.21;61.14;101944.50;5056036;28;20068;-55
2023/05/13 01:55:21;;;;;;;5.25;4.05;;;;;;;15.19;61.07;101943.91;5058761;28;20052;-60
2023/05/13 01:57:49;;;;;;;12.15;3.90;;;;;;;15.19;61.20;101947.44;5055422;28;20053;-59
2023/05/13 02:00:18;;;;;;;8.73;4.25;;;;;;;15.17;61.09;101948.72;5054969;28;20055;-59
2023/05/13 02:02:46;;;;;;;7.15;4.30;;;;;;;15.17;61.11;101951.44;5051070;28;20403;-60
2023/05/13 02:05:15;;;;;;;7.82;3.92;;;;;;;15.16;61.21;101944.38;5056389;28;20052;-56
2023/05/13 02:07:42;;;;;;;6.07;4.05;;;;;;;15.14;61.11;101946.47;5053619;28;20061;-58
2023/05/13 02:10:11;;;;;;;5.40;4.13;;;;;;;15.13;61.06;101942.09;5054400;28;20067;-56
2023/05/13 02:12:41;;;;;;;5.70;3.70;;;;;;;15.12;61.12;101943.16;5051995;28;20045;-60
2023/05/13 02:15:10;;;;;;;5.65;3.83;;;;;;;15.11;61.01;101947.75;5053361;28;20072;-60
2023/05/13 02:17:38;;;;;;;6.63;4.00;;;;;;;15.04;61.24;101947.00;5059699;28;20045;-60
2023/05/13 02:20:07;;;;;;;5.43;3.65;;;;;;;15.10;61.20;101956.09;5051140;28;20079;-59
2023/05/13 02:22:35;;;;;;;4.90;4.07;;;;;;;15.10;61.22;101953.38;5059527;28;20080;-59
2023/05/13 02:25:03;;;;;;;6.95;4.40;;;;;;;15.09;61.29;101951.72;5054982;28;20425;-59
2023/05/13 02:27:31;;;;;;;7.85;4.15;;;;;;;15.09;61.21;101946.31;5049680;28;20053;-60
2023/05/13 02:30:00;;;;;;;7.43;4.22;;;;;;;15.10;61.35;101947.97;5044768;28;20380;-57
2023/05/13 02:32:28;;;;;;;8.80;4.40;;;;;;;15.07;61.00;101946.53;5054329;28;20049;-59
2023/05/13 02:34:56;;;;;;;5.63;4.40;;;;;;;15.05;60.95;101945.09;5044147;28;20133;-58
2023/05/13 02:37:24;;;;;;;7.15;5.00;;;;;;;15.03;60.86;101941.78;5051044;28;20052;-58
2023/05/13 02:39:52;;;;;;;7.63;4.65;;;;;;;15.04;60.56;101947.00;5052002;28;20068;-59
2023/05/13 02:42:20;;;;;;;6.97;4.53;;;;;;;15.02;60.71;101942.84;5052264;28;20045;-59
2023/05/13 02:44:48;;;;;;;6.78;4.63;;;;;;;15.01;60.83;101942.03;5050459;28;20120;-59
2023/05/13 02:47:17;;;;;;;5.50;4.22;;;;;;;15.00;60.60;101944.94;5049352;28;20063;-59
2023/05/13 02:49:45;;;;;;;6.18;4.32;;;;;;;15.00;60.91;101944.94;5050031;28;20100;-60
2023/05/13 02:52:13;;;;;;;8.30;4.05;;;;;;;14.98;60.79;101939.75;5048560;28;20044;-59
2023/05/13 02:54:40;;;;;;;5.28;4.30;;;;;;;14.97;60.73;101948.94;5050239;28;20041;-59
2023/05/13 02:57:08;;;;;;;6.15;4.20;;;;;;;14.95;60.88;101940.22;5059648;28;20140;-58
2023/05/13 02:59:36;;;;;;;7.75;4.05;;;;;;;14.96;60.85;101955.41;5052683;28;20120;-60
2023/05/13 03:02:04;;;;;;;5.15;3.90;;;;;;;14.94;60.77;101947.50;5053904;28;20045;-59
2023/05/13 03:04:34;;;;;;;5.03;4.03;;;;;;;14.86;60.80;101936.13;5058001;28;20459;-59
2023/05/13 03:07:01;;;;;;;4.65;3.80;;;;;;;14.92;60.78;101944.19;5055638;28;20052;-60
2023/05/13 03:09:30;;;;;;;7.88;4.15;;;;;;;14.91;60.94;101939.84;5047855;28;20305;-61
2023/05/13 03:11:58;;;;;;;7.93;4.50;;;;;;;14.91;60.77;101944.41;5053897;28;20087;-60
2023/05/13 03:14:26;;;;;;;7.50;4.22;;;;;;;14.88;60.62;101940.28;5057152;28;20041;-62
2023/05/13 03:16:54;;;;;;;6.40;3.95;;;;;;;14.88;60.31;101942.16;5054864;28;20056;-59
2023/05/13 03:19:22;;;;;;;5.75;3.80;;;;;;;14.87;60.59;101935.09;5040869;28;20080;-59
2023/05/13 03:21:52;;;;;;;8.80;3.90;;;;;;;14.86;60.75;101939.66;5050960;28;20184;-58
2023/05/13 03:24:20;;;;;;;6.75;3.72;;;;;;;14.86;60.34;101946.97;5052135;28;20045;-59
2023/05/13 03:26:49;;;;;;;6.78;4.10;;;;;;;14.84;60.31;101940.94;5049306;28;20171;-59
2023/05/13 03:29:17;;;;;;;5.47;3.88;;;;;;;14.83;60.53;101947.41;5057233;28;20112;-60
2023/05/13 03:31:45;;;;;;;5.53;3.97;;;;;;;14.82;60.53;101938.47;5055414;28;20107;-59
2023/05/13 03:34:13;;;;;;;7.30;4.35;;;;;;;14.80;60.54;101945.97;5047390;28;20068;-58
2023/05/13 03:36:41;;;;;;;5.43;3.90;;;;;;;14.80;60.35;101953.28;5050702;28;20060;-59
2023/05/13 03:39:10;;;;;;;6.53;4.45;;;;;;;14.80;60.16;101955.97;5045438;28;20569;-59
2023/05/13 03:41:38;;;;;;;5.85;3.97;;;;;;;14.79;60.16;101949.72;5045662;28;20072;-59
2023/05/13 03:44:06;;;;;;;6.75;4.05;;;;;;;14.79;60.02;101951.63;5050822;28;20052;-59
2023/05/13 03:46:34;;;;;;;7.35;3.65;;;;;;;14.78;59.95;101956.19;5046413;28;20117;-59
2023/05/13 03:49:03;;;;;;;5.03;4.05;;;;;;;14.77;59.91;101953.72;5050105;28;20051;-60
2023/05/13 03:51:33;;;;;;;6.18;4.30;;;;;;;14.75;60.11;101953.94;5049027;28;20140;-59
2023/05/13 03:54:01;;;;;;;12.20;4.70;;;;;;;14.75;60.00;101953.09;5064433;28;20082;-59
2023/05/13 03:56:30;;;;;;;5.85;4.18;;;;;;;14.74;60.04;101956.88;5057651;28;20395;-60
2023/05/13 03:58:58;;;;;;;6.43;3.97;;;;;;;14.72;59.95;101961.66;5054713;28;20232;-60
2023/05/13 04:01:26;;;;;;;5.25;3.92;;;;;;;14.70;60.07;101950.25;5054509;28;20040;-60
2023/05/13 04:03:53;;;;;;;6.57;4.32;;;;;;;14.70;59.98;101956.47;5049688;28;20120;-60
2023/05/13 04:06:21;;;;;;;4.68;3.60;;;;;;;14.68;59.80;101953.16;5056799;28;20527;-60
2023/05/13 04:08:51;;;;;;;5.78;3.42;;;;;;;14.68;59.88;101952.34;5058194;28;20055;-59
2023/05/13 04:11:18;;;;;;;5.47;3.42;;;;;;;14.67;59.75;101953.38;5056729;28;20145;-60
2023/05/13 04:13:48;;;;;;;13.68;3.80;;;;;;;14.67;60.00;101950.69;5052313;28;20069;-55
2023/05/13 04:16:16;;;;;;;8.02;4.05;;;;;;;14.58;59.87;101947.44;5054746;28;20051;-60
2023/05/13 04:18:44;;;;;;;5.10;4.18;;;;;;;14.63;59.79;101961.94;5054055;28;20049;-56
2023/05/13 04:21:11;;;;;;;6.43;4.25;;;;;;;14.62;59.81;101956.75;5042431;28;20111;-61
2023/05/13 04:23:39;;;;;;;6.45;3.92;;;;;;;14.61;60.05;101955.94;5045441;28;20058;-60
2023/05/13 04:26:07;;;;;;;5.30;3.55;;;;;;;14.60;59.70;101959.69;5048559;28;20037;-58
2023/05/13 04:28:35;;;;;;;7.03;4.13;;;;;;;14.59;59.92;101963.44;5045775;28;20055;-60
2023/05/13 04:31:10;;;;;;;4.64;3.80;;;;;;;14.57;60.18;101967.41;4893737;28;10001259;-58
2023/05/13 04:33:38;;;;;;;7.38;4.70;;;;;;;14.57;59.62;101970.13;5044762;28;20280;-58
2023/05/13 04:36:06;;;;;;;7.43;4.55;;;;;;;14.54;59.43;101970.56;5045019;28;20152;-58
2023/05/13 04:38:34;;;;;;;6.63;4.28;;;;;;;14.53;59.77;101967.03;5048231;28;20063;-59
2023/05/13 04:41:02;;;;;;;6.95;4.95;;;;;;;14.52;59.83;101967.25;5049361;28;20238;-55
2023/05/13 04:43:30;;;;;;;5.53;4.13;;;;;;;14.51;59.98;101971.00;5041534;28;20386;-58
2023/05/13 04:45:58;;;;;;;14.25;4.13;;;;;;;14.48;59.87;101966.03;5050703;28;20068;-58
2023/05/13 04:48:28;;;;;;;6.57;4.00;;;;;;;14.49;59.48;101970.41;5054538;28;20057;-58
2023/05/13 04:50:57;;;;;;;6.78;4.00;;;;;;;14.47;59.81;101975.19;5047695;28;20041;-56
2023/05/13 04:53:25;;;;;;;6.15;3.95;;;;;;;14.45;59.87;101974.59;5042970;28;21368;-59
2023/05/13 04:55:59;;;;;;;9.80;5.00;;;;;;;14.44;59.78;101975.63;5057438;28;20294;-59
2023/05/13 04:58:27;;;;;;;9.00;4.45;;;;;;;14.43;59.94;101977.50;5048064;28;20053;-58
2023/05/13 05:00:56;;;;;;;5.57;4.40;;;;;;;14.40;59.46;101980.63;5049367;28;20103;-59
2023/05/13 05:03:24;;;;;;;8.30;5.05;;;;;;;14.40;59.71;101985.22;5053742;28;20046;-59
2023/05/13 05:05:53;;;;;;;8.20;4.63;;;;;;;14.39;59.80;101983.53;5042810;28;20049;-58
2023/05/13 05:08:21;;;;;;;10.30;4.82;;;;;;;14.37;59.55;101981.06;5053098;28;20060;-59
2023/05/13 05:10:49;;;;;;;10.18;5.30;;;;;;;14.37;59.36;101986.47;5057037;28;20045;-60
2023/05/13 05:13:17;;;;;;;8.38;4.65;;;;;;;14.37;59.61;101986.47;5051396;28;20052;-59
2023/05/13 05:15:44;;;;;;;7.18;4.70;;;;;;;14.36;59.85;101986.69;5050779;28;20528;-57
2023/05/13 05:18:12;;;;;;;10.05;4.65;;;;;;;14.34;60.14;101998.56;5048703;28;20374;-59
2023/05/13 05:20:40;;;;;;;7.55;4.40;;;;;;;14.32;59.87;102003.34;5043453;28;20059;-61
2023/05/13 05:23:10;;;;;;;7.75;4.32;;;;;;;14.33;60.37;102007.72;5041587;28;20049;-58
2023/05/13 05:25:38;;;;;;;7.60;4.53;;;;;;;14.33;60.30;102007.72;5048477;28;20038;-59
2023/05/13 05:28:06;;;;;;;9.38;4.68;;;;;;;14.33;60.45;102007.72;5057964;28;20075;-59
2023/05/13 05:30:38;;;;;;;8.27;4.80;;;;;;;14.35;60.66;102010.19;5053448;28;20557;-59
2023/05/13 05:33:07;;;;;;;7.22;4.20;;;;;;;14.38;60.64;102012.47;5048806;28;20071;-60
2023/05/13 05:35:36;;;;;;;9.32;4.90;;;;;;;14.40;60.94;102014.97;5060242;28;20083;-58
2023/05/13 05:38:04;;;;;;;9.05;5.15;;;;;;;14.41;60.72;102014.75;5058371;28;20057;-56
2023/05/13 05:40:35;;;;;;;6.32;4.70;;;;;;;14.44;60.39;102017.03;5049622;28;20055;-58
2023/05/13 05:43:03;;;;;;;5.85;4.30;;;;;;;14.43;60.61;102007.25;5048958;28;20092;-56
2023/05/13 05:45:31;;;;;;;9.25;4.75;;;;;;;14.48;60.64;102010.16;5060356;28;20109;-59
2023/05/13 05:47:59;;;;;;;6.13;4.50;;;;;;;14.51;60.38;102014.28;5059179;28;20136;-59
2023/05/13 05:50:27;;;;;;;9.65;4.47;;;;;;;14.50;60.36;102005.34;5063260;28;20049;-57
2023/05/13 05:52:56;;;;;;;7.47;4.90;;;;;;;14.52;60.54;102008.66;5058655;28;20116;-59
2023/05/13 05:55:23;;;;;;;7.45;4.40;;;;;;;14.53;60.41;102014.91;5050070;28;20057;-58
2023/05/13 05:57:53;;;;;;;6.80;4.78;;;;;;;14.53;60.27;102018.44;5046539;28;20067;-58
2023/05/13 06:00:21;;;;;;;5.70;4.03;;;;;;;14.54;60.63;102017.38;5053322;28;20560;-59
2023/05/13 06:02:49;;;;;;;6.18;4.47;;;;;;;14.54;60.40;102016.56;5054669;28;20047;-59
2023/05/13 06:05:17;;;;;;;9.75;5.10;;;;;;;14.53;60.33;102023.00;5040862;28;20053;-64
2023/05/13 06:07:45;;;;;;;10.85;5.05;;;;;;;14.54;60.34;102021.97;5047640;28;20056;-60
2023/05/13 06:10:13;;;;;;;8.60;5.25;;;;;;;14.56;60.47;102030.69;5047230;28;20145;-60
2023/05/13 06:12:41;;;;;;;9.68;5.13;;;;;;;14.57;60.61;102027.75;5040865;28;20624;-61
2023/05/13 06:15:11;;;;;;;7.43;4.70;;;;;;;14.58;60.48;102031.28;5043490;28;20135;-55
2023/05/13 06:17:39;;;;;;;7.25;4.32;;;;;;;14.59;60.53;102025.66;5039824;28;20110;-60
2023/05/13 06:20:08;;;;;;;8.10;5.30;;;;;;;14.60;60.75;102024.63;5051275;28;20103;-60
2023/05/13 06:22:36;;;;;;;9.43;4.20;;;;;;;14.61;60.50;102034.41;5045167;28;20049;-59
2023/05/13 06:25:04;;;;;;;7.47;4.47;;;;;;;14.62;60.68;102025.22;5045599;28;20407;-59
2023/05/13 06:27:33;;;;;;;12.18;4.95;;;;;;;14.63;60.78;102023.34;5038739;28;20049;-60
2023/05/13 06:30:01;;;;;;;7.85;4.25;;;;;;;14.65;61.08;102032.91;5053003;28;20128;-61
2023/05/13 06:32:30;;;;;;;8.05;3.83;;;;;;;14.67;60.83;102035.41;5051174;28;20140;-60
2023/05/13 06:34:58;;;;;;;6.10;3.80;;;;;;;14.69;61.12;102027.88;5050689;28;20049;-60
2023/05/13 06:37:26;;;;;;;7.05;4.57;;;;;;;14.71;60.94;102031.19;5057016;28;20048;-63
2023/05/13 06:39:54;;;;;;;9.90;4.22;;;;;;;14.72;61.23;102035.56;5048959;28;20048;-60
2023/05/13 06:42:22;;;;;;;5.32;4.30;;;;;;;14.74;61.04;102044.28;5051849;28;20053;-64
2023/05/13 06:44:49;;;;;;;6.22;4.45;;;;;;;14.74;61.25;102043.47;5048507;28;20041;-61
2023/05/13 06:47:17;;;;;;;9.15;4.90;;;;;;;14.75;61.09;102042.41;5049453;28;20437;-63
2023/05/13 06:49:47;;;;;;;7.35;4.60;;;;;;;14.74;61.07;102044.28;5056627;28;20078;-59
2023/05/13 06:52:14;;;;;;;5.55;4.10;;;;;;;14.75;61.03;102032.41;5045235;28;20063;-60
2023/05/13 06:54:42;;;;;;;4.75;4.22;;;;;;;14.78;61.25;102039.25;5057237;28;20059;-60
2023/05/13 06:57:11;;;;;;;6.95;4.95;;;;;;;14.77;60.94;102038.44;5053306;28;20041;-59
2023/05/13 06:59:38;;;;;;;7.25;4.55;;;;;;;14.78;61.17;102037.38;5053613;28;20048;-62
2023/05/13 07:02:08;;;;;;;9.57;5.07;;;;;;;14.78;61.30;102031.97;5050731;28;20091;-59
2023/05/13 07:04:36;;;;;;;9.55;4.60;;;;;;;14.79;61.59;102044.47;5047670;28;20075;-59
2023/05/13 07:07:06;;;;;;;10.85;4.80;;;;;;;14.80;61.10;102040.69;5051557;28;20049;-59
2023/05/13 07:09:34;;;;;;;8.95;5.10;;;;;;;14.90;60.47;102048.31;5046187;28;21463;-57
2023/05/13 07:12:02;;;;;;;8.63;5.30;;;;;;;14.86;61.14;102037.13;5049460;28;20053;-60
2023/05/13 07:14:29;;;;;;;9.63;6.20;;;;;;;14.89;61.12;102046.66;5049044;28;20059;-59
2023/05/13 07:16:57;;;;;;;11.27;6.47;;;;;;;14.89;60.99;102044.78;5056412;28;20047;-60
2023/05/13 07:19:25;;;;;;;7.25;5.82;;;;;;;14.93;61.12;102037.06;5052881;28;20049;-61
2023/05/13 07:21:53;;;;;;;8.13;5.97;;;;;;;14.95;61.13;102049.31;5059976;28;20175;-60
2023/05/13 07:24:22;;;;;;;14.00;6.38;;;;;;;14.96;61.17;102042.84;5053497;28;20048;-61
2023/05/13 07:26:50;;;;;;;10.93;6.00;;;;;;;14.98;60.99;102046.16;5059861;28;20045;-60
2023/05/13 07:29:19;;;;;;;7.47;5.45;;;;;;;15.01;61.07;102038.66;5045125;28;20517;-60
2023/05/13 07:31:46;;;;;;;8.07;5.70;;;;;;;15.02;61.05;102035.72;5059659;28;20113;-60
2023/05/13 07:34:15;;;;;;;7.43;5.25;;;;;;;15.03;61.24;102033.84;5049136;28;20049;-60
2023/05/13 07:36:42;;;;;;;8.23;5.68;;;;;;;15.05;61.23;102039.88;5059115;28;20045;-61
2023/05/13 07:39:10;;;;;;;8.70;5.38;;;;;;;15.05;61.34;102034.44;5047795;28;20102;-60
2023/05/13 07:41:40;;;;;;;7.45;5.28;;;;;;;15.05;61.10;102040.69;5060074;28;20072;-60
2023/05/13 07:44:11;;;;;;;9.65;6.50;;;;;;;14.99;61.37;102030.75;5053972;28;20053;-61
2023/05/13 07:46:39;;;;;;;8.27;6.22;;;;;;;15.07;61.44;102040.47;5057174;28;20057;-61
2023/05/13 07:49:07;;;;;;;6.85;5.68;;;;;;;15.10;61.04;102048.16;5055883;28;20049;-60
2023/05/13 07:51:36;;;;;;;10.60;5.05;;;;;;;15.11;61.21;102047.94;5048688;28;20119;-61
2023/05/13 07:54:04;;;;;;;8.93;5.63;;;;;;;15.14;61.29;102043.94;5057350;28;20061;-61
2023/05/13 07:56:32;;;;;;;8.82;5.13;;;;;;;15.17;61.22;102051.63;5057011;28;20133;-60
2023/05/13 07:59:01;;;;;;;5.95;5.35;;;;;;;15.17;61.26;102052.44;5060129;28;20485;-60
2023/05/13 08:01:29;;;;;;;6.82;5.10;;;;;;;15.17;61.28;102051.63;5046023;28;20049;-61
2023/05/13 08:03:57;;;;;;;7.88;5.30;;;;;;;15.18;61.47;102056.00;5059794;28;20045;-60
2023/05/13 08:06:25;;;;;;;6.45;5.20;;;;;;;15.16;61.47;102049.97;5055753;28;20045;-60
2023/05/13 08:08:53;;;;;;;9.68;5.68;;;;;;;15.20;61.57;102051.19;5043408;28;20048;-60
2023/05/13 08:11:21;;;;;;;9.20;4.97;;;;;;;15.21;61.37;102045.53;5044143;28;20052;-61
2023/05/13 08:13:49;;;;;;;13.25;5.07;;;;;;;15.25;61.40;102056.75;5053333;28;20548;-61
2023/05/13 08:16:18;;;;;;;6.65;5.05;;;;;;;15.25;61.41;102052.16;5048548;28;20055;-62
2023/05/13 08:18:46;;;;;;;12.35;5.32;;;;;;;15.27;61.79;102046.53;5055353;28;20278;-60
2023/05/13 08:21:14;;;;;;;8.65;5.53;;;;;;;15.29;61.77;102044.44;5042148;28;20076;-61
2023/05/13 08:23:42;;;;;;;6.88;4.93;;;;;;;15.32;61.66;102043.16;5050456;28;20118;-60
2023/05/13 08:26:12;;;;;;;11.15;5.35;;;;;;;15.32;61.91;102041.28;5054861;28;20071;-60
2023/05/13 08:28:40;;;;;;;9.45;4.80;;;;;;;15.34;62.18;102047.28;5062449;28;20051;-57
2023/05/13 08:31:11;;;;;;;6.97;4.93;;;;;;;15.35;62.19;102043.53;5049133;28;20049;-59
2023/05/13 08:33:41;;;;;;;8.95;4.88;;;;;;;15.38;62.35;102043.09;5051861;28;20208;-61
2023/05/13 08:36:09;;;;;;;8.35;5.13;;;;;;;15.40;62.50;102037.44;5056972;28;20076;-61
2023/05/13 08:38:37;;;;;;;7.13;4.50;;;;;;;15.42;62.39;102040.75;5060179;28;20064;-60
2023/05/13 08:41:05;;;;;;;5.53;4.50;;;;;;;15.44;62.55;102039.47;5047421;28;20578;-61
2023/05/13 08:43:33;;;;;;;11.35;5.25;;;;;;;15.46;62.67;102040.06;5052692;28;20095;-60
2023/05/13 08:46:03;;;;;;;14.18;5.00;;;;;;;15.48;62.59;102040.69;5046219;28;20057;-60
2023/05/13 08:48:32;;;;;;;9.25;4.47;;;;;;;15.51;62.62;102042.94;5052627;28;20057;-61
2023/05/13 08:51:02;;;;;;;12.57;5.97;;;;;;;15.45;62.75;102021.34;5053172;28;20081;-60
2023/05/13 08:53:31;;;;;;;12.02;7.53;;;;;;;15.94;59.25;102040.13;5050805;28;20429;-61
2023/05/13 08:56:00;;;;;;;11.00;7.32;;;;;;;16.13;58.67;102032.78;4701003;28;10000533;-60
2023/05/13 08:58:28;;;;;;;9.65;6.05;;;;;;;16.05;60.18;102038.53;5052127;28;20112;-57
2023/05/13 09:00:56;;;;;;;9.68;5.53;;;;;;;15.98;60.72;102035.06;5044731;28;20057;-60
2023/05/13 09:03:27;;;;;;;6.38;5.43;;;;;;;15.95;61.20;102033.66;5047832;28;20045;-62
2023/05/13 09:05:55;;;;;;;8.50;5.45;;;;;;;15.92;61.29;102041.41;5052833;28;20114;-62
2023/05/13 09:08:24;;;;;;;10.48;5.88;;;;;;;15.92;61.61;102038.69;5046571;28;20077;-59
2023/05/13 09:10:53;;;;;;;8.30;5.90;;;;;;;15.85;61.61;102018.97;5048480;28;20317;-62
2023/05/13 09:13:21;;;;;;;8.93;6.13;;;;;;;16.04;61.73;102036.88;5054149;28;20621;-61
2023/05/13 09:15:50;;;;;;;10.50;7.38;;;;;;;16.16;61.51;102028.78;5051129;28;20076;-61
2023/05/13 09:18:18;;;;;;;10.18;6.57;;;;;;;16.28;61.40;102033.19;5057588;28;20045;-60
2023/05/13 09:20:47;;;;;;;10.73;6.85;;;;;;;16.54;58.19;102012.97;5042749;28;20048;-61
2023/05/13 09:23:15;;;;;;;9.60;5.97;;;;;;;16.57;59.86;102019.81;5050297;28;20564;-60
2023/05/13 09:25:44;;;;;;;13.23;7.07;;;;;;;16.56;60.49;102016.28;5055293;28;20059;-61
2023/05/13 09:28:15;;;;;;;14.93;6.68;;;;;;;16.67;59.81;102017.41;5055729;28;20037;-56
2023/05/13 09:30:44;;;;;;;10.05;5.80;;;;;;;16.70;59.28;102013.41;5052686;28;20136;-62
2023/05/13 09:33:14;;;;;;;7.82;5.65;;;;;;;16.76;58.96;102020.59;5052011;28;20131;-62
2023/05/13 09:35:44;;;;;;;10.15;6.53;;;;;;;16.82;59.07;102009.63;5059480;28;20063;-61
2023/05/13 09:38:13;;;;;;;10.68;5.82;;;;;;;16.90;59.06;102013.88;5056914;28;20049;-61
2023/05/13 09:40:41;;;;;;;10.18;4.88;;;;;;;16.94;59.05;102016.97;5057468;28;20048;-60
2023/05/13 09:43:11;;;;;;;8.45;4.85;;;;;;;16.91;59.61;102015.53;5060629;28;20095;-62
2023/05/13 09:45:39;;;;;;;8.65;5.40;;;;;;;16.85;59.54;102006.44;5061269;28;20045;-61
2023/05/13 09:48:08;;;;;;;6.38;4.63;;;;;;;16.95;59.67;102007.75;5056758;28;20109;-60
2023/05/13 09:50:46;;;;;;;12.68;5.25;;;;;;;16.91;59.99;102008.22;5054320;28;20056;-59
2023/05/13 09:53:14;;;;;;;8.60;4.15;;;;;;;16.87;60.26;102017.91;5053815;28;20599;-62
2023/05/13 09:55:46;;;;;;;7.50;4.22;;;;;;;16.95;59.27;102008.56;5057268;28;20175;-59
2023/05/13 09:58:15;;;;;;;7.75;4.25;;;;;;;16.96;59.68;102012.13;5056688;28;20059;-62
2023/05/13 10:00:43;;;;;;;6.38;4.43;;;;;;;16.89;59.89;102013.06;5055007;28;20056;-57
2023/05/13 10:03:12;;;;;;;7.32;4.57;;;;;;;16.92;60.15;101998.19;5054660;28;20055;-62
2023/05/13 10:05:41;;;;;;;7.82;3.60;;;;;;;16.92;60.37;102007.16;5051289;28;20911;-60
2023/05/13 10:08:10;;;;;;;9.30;4.55;;;;;;;16.92;60.65;102000.91;5057691;28;20140;-60
2023/05/13 10:10:39;;;;;;;10.27;5.05;;;;;;;16.93;60.86;102002.56;5055363;28;20041;-59
2023/05/13 10:13:10;;;;;;;7.97;4.85;;;;;;;17.00;60.37;101995.13;5048293;28;20128;-60
2023/05/13 10:15:46;;;;;;;15.40;5.72;;;;;;;17.10;59.74;102003.50;5046399;28;20160;-61
2023/05/13 10:18:15;;;;;;;7.20;4.25;;;;;;;17.13;60.00;101997.59;5053573;28;20063;-61
2023/05/13 10:20:43;;;;;;;6.25;4.00;;;;;;;17.15;60.54;101998.19;5052210;28;20049;-60
2023/05/13 10:23:12;;;;;;;10.10;4.32;;;;;;;17.14;60.21;102003.84;5050946;28;20064;-61
2023/05/13 10:25:41;;;;;;;9.00;3.88;;;;;;;17.13;60.42;101999.47;5052425;28;20056;-61
2023/05/13 10:28:10;;;;;;;6.32;3.63;;;;;;;17.13;60.40;101991.31;5054003;28;20438;-61
2023/05/13 10:30:40;;;;;;;8.98;4.22;;;;;;;17.06;60.95;101982.47;5051726;28;20076;-60
2023/05/13 10:33:08;;;;;;;5.78;3.55;;;;;;;17.17;60.76;101993.34;5042506;28;20122;-61
2023/05/13 10:35:38;;;;;;;11.73;3.90;;;;;;;17.09;59.96;101974.69;5051148;28;20116;-62
2023/05/13 10:38:14;;;;;;;7.80;4.05;;;;;;;17.25;60.18;101992.16;5061588;28;20084;-63
2023/05/13 10:41:04;;;;;;;11.35;4.05;;;;;;;17.38;59.56;101985.59;5056237;28;20107;-65
2023/05/13 10:43:34;;;;;;;7.05;4.05;;;;;;;17.46;59.88;102001.53;5055291;28;20462;-63
2023/05/13 10:46:06;;;;;;;9.80;3.38;;;;;;;17.51;60.34;101996.19;5051505;28;20049;-65
2023/05/13 10:48:39;;;;;;;10.45;4.18;;;;;;;17.53;61.12;101977.75;5045140;28;20089;-66
2023/05/13 10:51:07;;;;;;;9.00;3.75;;;;;;;17.56;61.17;101986.25;5051423;28;20087;-64
2023/05/13 10:53:37;;;;;;;10.68;4.03;;;;;;;17.57;60.78;101990.63;5050049;28;20132;-64
2023/05/13 10:56:07;;;;;;;6.45;4.07;;;;;;;17.56;59.19;101980.00;5050848;28;20131;-65
2023/05/13 10:58:37;;;;;;;8.65;4.10;;;;;;;17.51;60.38;101969.03;5057225;28;20051;-66
2023/05/13 11:01:17;;;;;;;8.68;4.82;;;;;;;17.60;59.23;101986.59;5048465;28;20291;-65
2023/05/13 11:03:53;;;;;;;7.13;3.72;;;;;;;17.61;59.02;101982.81;5049306;28;20045;-65
2023/05/13 11:06:23;;;;;;;5.28;3.35;;;;;;;17.70;59.94;101984.13;5052717;28;20076;-65
2023/05/13 11:08:52;;;;;;;5.20;3.17;;;;;;;17.88;60.60;101983.13;5050368;28;20126;-66
2023/05/13 11:11:26;;;;;;;8.73;2.80;;;;;;;17.96;60.99;101963.69;5059032;28;20183;-61
2023/05/13 11:13:55;;;;;;;5.80;3.63;;;;;;;17.96;60.83;101965.59;5054365;28;20446;-66
2023/05/13 11:16:24;;;;;;;5.90;3.33;;;;;;;17.97;60.12;101965.34;5045196;28;20123;-60
2023/05/13 11:18:53;;;;;;;5.57;3.40;;;;;;;18.00;60.62;101961.31;5052209;28;20465;-66
2023/05/13 11:21:30;;;;;;;8.38;3.50;;;;;;;18.04;60.08;101957.84;5056907;28;20075;-65
2023/05/13 11:23:59;;;;;;;6.25;3.72;;;;;;;18.08;60.87;101961.72;5045960;28;20130;-64
2023/05/13 11:26:41;;;;;;;4.60;3.15;;;;;;;18.13;60.96;101958.28;5052771;28;20521;-64
2023/05/13 11:29:08;;;;;;;10.38;3.45;;;;;;;18.14;59.45;101951.78;5050283;28;20443;-63
2023/05/13 11:31:48;;;;;;;6.88;3.88;;;;;;;18.12;55.60;101954.72;5057450;28;20049;-64